NKS712 KMCO-KCLT
Flight info
| Callsign | NKS712 |
|---|---|
| Flight time | 1h 17m |
| Altitude | 35000 |
| Route | FATHE4 VIYAP CHECR STOCR4 |
| Aircraft | A320/M-SDE3FGHIRWY/LB1 |
Departure
| Time | 2026-05-04 20:37 |
|---|---|
| Airport | Orlando International Airport (KMCO) |
Arrival
| Time | 2026-05-04 21:55 |
|---|---|
| Airport | Charlotte Douglas International Airport (KCLT) |
| Time | Latitude | Longitude | Altitude | Speed | Heading |
|---|---|---|---|---|---|
| 2026-05-04 20:01 | 28.43567 | -81.31353 | 100 ft | 0 kts | 149° |
| 2026-05-04 20:23 | 28.43578 | -81.31361 | 102 ft | 3 kts | 149° |
| 2026-05-04 20:24 | 28.43594 | -81.31372 | 100 ft | 3 kts | 149° |
| 2026-05-04 20:24 | 28.43611 | -81.31382 | 100 ft | 3 kts | 163° |
| 2026-05-04 20:24 | 28.43631 | -81.31386 | 99 ft | 3 kts | 181° |
| 2026-05-04 20:24 | 28.43650 | -81.31384 | 100 ft | 3 kts | 202° |
| 2026-05-04 20:25 | 28.43667 | -81.31373 | 101 ft | 3 kts | 224° |
| 2026-05-04 20:25 | 28.43679 | -81.31356 | 100 ft | 3 kts | 246° |
| 2026-05-04 20:25 | 28.43684 | -81.31336 | 101 ft | 0 kts | 269° |
| 2026-05-04 20:26 | 28.43684 | -81.31340 | 100 ft | 2 kts | 269° |
| 2026-05-04 20:26 | 28.43690 | -81.31382 | 100 ft | 8 kts | 300° |
| 2026-05-04 20:27 | 28.43746 | -81.31418 | 101 ft | 11 kts | 338° |
| 2026-05-04 20:27 | 28.43853 | -81.31451 | 101 ft | 23 kts | 356° |
| 2026-05-04 20:27 | 28.43929 | -81.31364 | 101 ft | 18 kts | 83° |
| 2026-05-04 20:27 | 28.43934 | -81.31242 | 109 ft | 12 kts | 86° |
| 2026-05-04 20:28 | 28.43937 | -81.31142 | 115 ft | 14 kts | 84° |
| 2026-05-04 20:28 | 28.43950 | -81.31024 | 114 ft | 17 kts | 52° |
| 2026-05-04 20:28 | 28.43942 | -81.30911 | 101 ft | 17 kts | 88° |
| 2026-05-04 20:28 | 28.43938 | -81.30801 | 121 ft | 16 kts | 94° |
| 2026-05-04 20:29 | 28.43928 | -81.30667 | 120 ft | 18 kts | 93° |
| 2026-05-04 20:29 | 28.43919 | -81.30478 | 100 ft | 28 kts | 95° |
| 2026-05-04 20:29 | 28.43905 | -81.30261 | 101 ft | 27 kts | 94° |
| 2026-05-04 20:29 | 28.43898 | -81.30047 | 102 ft | 27 kts | 95° |
| 2026-05-04 20:30 | 28.43824 | -81.29867 | 102 ft | 25 kts | 139° |
| 2026-05-04 20:30 | 28.43720 | -81.29810 | 104 ft | 25 kts | 169° |
| 2026-05-04 20:30 | 28.43502 | -81.29804 | 104 ft | 25 kts | 179° |
| 2026-05-04 20:30 | 28.43326 | -81.29805 | 103 ft | 26 kts | 180° |
| 2026-05-04 20:31 | 28.43143 | -81.29801 | 103 ft | 26 kts | 179° |
| 2026-05-04 20:31 | 28.42969 | -81.29800 | 103 ft | 26 kts | 180° |
| 2026-05-04 20:31 | 28.42782 | -81.29798 | 103 ft | 26 kts | 180° |
| 2026-05-04 20:31 | 28.42610 | -81.29797 | 103 ft | 27 kts | 179° |
| 2026-05-04 20:32 | 28.42420 | -81.29794 | 102 ft | 27 kts | 179° |
| 2026-05-04 20:32 | 28.42232 | -81.29793 | 102 ft | 27 kts | 179° |
| 2026-05-04 20:32 | 28.42037 | -81.29793 | 102 ft | 28 kts | 179° |
| 2026-05-04 20:32 | 28.41851 | -81.29788 | 102 ft | 28 kts | 179° |
| 2026-05-04 20:33 | 28.41647 | -81.29787 | 102 ft | 28 kts | 180° |
| 2026-05-04 20:33 | 28.41448 | -81.29785 | 101 ft | 29 kts | 179° |
| 2026-05-04 20:33 | 28.41241 | -81.29779 | 101 ft | 30 kts | 178° |
| 2026-05-04 20:33 | 28.41030 | -81.29776 | 100 ft | 30 kts | 181° |
| 2026-05-04 20:34 | 28.40910 | -81.29777 | 100 ft | 10 kts | 180° |
| 2026-05-04 20:34 | 28.40835 | -81.29761 | 100 ft | 10 kts | 137° |
| 2026-05-04 20:34 | 28.40822 | -81.29674 | 98 ft | 13 kts | 86° |
| 2026-05-04 20:34 | 28.40821 | -81.29666 | 98 ft | 0 kts | 94° |
| 2026-05-04 20:35 | 28.40821 | -81.29656 | 98 ft | 4 kts | 91° |
| 2026-05-04 20:36 | 28.40822 | -81.29593 | 97 ft | 10 kts | 89° |
| 2026-05-04 20:36 | 28.40856 | -81.29561 | 97 ft | 0 kts | 353° |
| 2026-05-04 20:36 | 28.40859 | -81.29560 | 97 ft | 0 kts | 2° |
| 2026-05-04 20:36 | 28.41162 | -81.29561 | 100 ft | 77 kts | 359° |
| 2026-05-04 20:37 | 28.41615 | -81.29567 | 106 ft | 115 kts | 359° |
| 2026-05-04 20:37 | 28.42579 | -81.29576 | 101 ft | 160 kts | 360° |
| 2026-05-04 20:37 | 28.43727 | -81.29617 | 532 ft | 166 kts | 360° |
| 2026-05-04 20:37 | 28.44878 | -81.29576 | 1146 ft | 164 kts | 21° |
| 2026-05-04 20:38 | 28.45877 | -81.29031 | 1721 ft | 159 kts | 36° |
| 2026-05-04 20:38 | 28.46866 | -81.28368 | 2050 ft | 176 kts | 34° |
| 2026-05-04 20:38 | 28.47990 | -81.27618 | 2280 ft | 199 kts | 33° |
| 2026-05-04 20:38 | 28.49250 | -81.26780 | 2551 ft | 221 kts | 33° |
| 2026-05-04 20:39 | 28.50621 | -81.25876 | 3073 ft | 233 kts | 31° |
| 2026-05-04 20:39 | 28.52198 | -81.25270 | 3667 ft | 251 kts | 9° |
| 2026-05-04 20:39 | 28.53992 | -81.25128 | 4329 ft | 264 kts | 4° |
| 2026-05-04 20:39 | 28.55848 | -81.25088 | 5131 ft | 270 kts | 359° |
| 2026-05-04 20:40 | 28.57748 | -81.25157 | 5941 ft | 275 kts | 356° |
| 2026-05-04 20:40 | 28.59676 | -81.25372 | 6673 ft | 281 kts | 351° |
| 2026-05-04 20:40 | 28.61619 | -81.25677 | 7188 ft | 283 kts | 350° |
| 2026-05-04 20:40 | 28.63568 | -81.25999 | 8021 ft | 284 kts | 350° |
| 2026-05-04 20:41 | 28.65539 | -81.26301 | 8820 ft | 287 kts | 350° |
| 2026-05-04 20:41 | 28.67525 | -81.26585 | 9606 ft | 291 kts | 349° |
| 2026-05-04 20:41 | 28.69569 | -81.26866 | 10294 ft | 298 kts | 350° |
| 2026-05-04 20:41 | 28.71704 | -81.27158 | 10480 ft | 321 kts | 350° |
| 2026-05-04 20:42 | 28.74004 | -81.27471 | 10704 ft | 340 kts | 350° |
| 2026-05-04 20:42 | 28.76376 | -81.27793 | 11264 ft | 346 kts | 350° |
| 2026-05-04 20:42 | 28.78778 | -81.28119 | 11918 ft | 349 kts | 351° |
| 2026-05-04 20:42 | 28.81201 | -81.28447 | 12572 ft | 352 kts | 351° |
| 2026-05-04 20:43 | 28.83611 | -81.28772 | 13219 ft | 355 kts | 351° |
| 2026-05-04 20:43 | 28.86117 | -81.29075 | 13868 ft | 358 kts | 353° |
| 2026-05-04 20:43 | 28.88619 | -81.29308 | 14425 ft | 361 kts | 353° |
| 2026-05-04 20:43 | 28.91136 | -81.29510 | 14962 ft | 365 kts | 353° |
| 2026-05-04 20:44 | 28.93676 | -81.29703 | 15506 ft | 368 kts | 353° |
| 2026-05-04 20:44 | 28.96245 | -81.29900 | 16040 ft | 371 kts | 353° |
| 2026-05-04 20:44 | 28.98798 | -81.30103 | 16579 ft | 375 kts | 353° |
| 2026-05-04 20:44 | 29.01432 | -81.30339 | 17130 ft | 377 kts | 351° |
| 2026-05-04 20:45 | 29.04058 | -81.30618 | 17660 ft | 381 kts | 351° |
| 2026-05-04 20:45 | 29.06699 | -81.30924 | 18204 ft | 384 kts | 350° |
| 2026-05-04 20:45 | 29.09333 | -81.31238 | 18690 ft | 387 kts | 350° |
| 2026-05-04 20:45 | 29.12031 | -81.31537 | 19172 ft | 390 kts | 351° |
| 2026-05-04 20:46 | 29.14756 | -81.31754 | 19661 ft | 394 kts | 352° |
| 2026-05-04 20:46 | 29.17514 | -81.31916 | 20160 ft | 397 kts | 352° |
| 2026-05-04 20:46 | 29.20288 | -81.32051 | 20644 ft | 400 kts | 353° |
| 2026-05-04 20:46 | 29.23081 | -81.32184 | 21120 ft | 402 kts | 352° |
| 2026-05-04 20:47 | 29.25854 | -81.32326 | 21625 ft | 404 kts | 352° |
| 2026-05-04 20:47 | 29.28678 | -81.32483 | 22081 ft | 407 kts | 351° |
| 2026-05-04 20:47 | 29.31518 | -81.32651 | 22508 ft | 409 kts | 351° |
| 2026-05-04 20:47 | 29.34366 | -81.32826 | 22936 ft | 412 kts | 351° |
| 2026-05-04 20:48 | 29.37233 | -81.33004 | 23366 ft | 414 kts | 351° |
| 2026-05-04 20:48 | 29.40125 | -81.33184 | 23773 ft | 417 kts | 351° |
| 2026-05-04 20:48 | 29.43027 | -81.33359 | 24134 ft | 419 kts | 351° |
| 2026-05-04 20:48 | 29.45951 | -81.33531 | 24495 ft | 421 kts | 351° |
| 2026-05-04 20:49 | 29.48889 | -81.33705 | 24856 ft | 423 kts | 351° |
| 2026-05-04 20:49 | 29.51833 | -81.33883 | 25216 ft | 425 kts | 350° |
| 2026-05-04 20:49 | 29.54799 | -81.34066 | 25602 ft | 426 kts | 350° |
| 2026-05-04 20:49 | 29.57769 | -81.34247 | 25951 ft | 428 kts | 350° |
| 2026-05-04 20:50 | 29.60755 | -81.34426 | 26293 ft | 430 kts | 350° |
| 2026-05-04 20:50 | 29.63717 | -81.34604 | 26630 ft | 432 kts | 350° |
| 2026-05-04 20:50 | 29.66725 | -81.34783 | 26984 ft | 434 kts | 350° |
| 2026-05-04 20:50 | 29.69754 | -81.34960 | 27326 ft | 436 kts | 350° |
| 2026-05-04 20:51 | 29.72787 | -81.35133 | 27674 ft | 438 kts | 350° |
| 2026-05-04 20:51 | 29.75836 | -81.35307 | 28018 ft | 440 kts | 350° |
| 2026-05-04 20:51 | 29.78904 | -81.35483 | 28369 ft | 442 kts | 350° |
| 2026-05-04 20:51 | 29.81995 | -81.35662 | 28706 ft | 444 kts | 349° |
| 2026-05-04 20:52 | 29.85078 | -81.35839 | 29090 ft | 445 kts | 349° |
| 2026-05-04 20:52 | 29.88169 | -81.36014 | 29586 ft | 444 kts | 349° |
| 2026-05-04 20:52 | 29.91237 | -81.36185 | 30084 ft | 442 kts | 349° |
| 2026-05-04 20:52 | 29.94310 | -81.36355 | 30514 ft | 441 kts | 349° |
| 2026-05-04 20:53 | 29.97376 | -81.36528 | 30904 ft | 440 kts | 349° |
| 2026-05-04 20:53 | 30.00421 | -81.36704 | 31293 ft | 439 kts | 349° |
| 2026-05-04 20:53 | 30.03474 | -81.36882 | 31687 ft | 438 kts | 349° |
| 2026-05-04 20:53 | 30.06476 | -81.37058 | 32073 ft | 437 kts | 349° |
| 2026-05-04 20:54 | 30.09545 | -81.37238 | 32472 ft | 436 kts | 349° |
| 2026-05-04 20:54 | 30.12553 | -81.37409 | 32920 ft | 435 kts | 348° |
| 2026-05-04 20:54 | 30.15576 | -81.37582 | 33350 ft | 434 kts | 348° |
| 2026-05-04 20:54 | 30.18591 | -81.37756 | 33769 ft | 433 kts | 348° |
| 2026-05-04 20:55 | 30.21599 | -81.37930 | 34163 ft | 432 kts | 348° |
| 2026-05-04 20:55 | 30.24604 | -81.38102 | 34489 ft | 432 kts | 348° |
| 2026-05-04 20:55 | 30.27613 | -81.38277 | 34791 ft | 431 kts | 348° |
| 2026-05-04 20:55 | 30.30617 | -81.38451 | 35041 ft | 432 kts | 348° |
| 2026-05-04 20:56 | 30.36661 | -81.38808 | 35111 ft | 441 kts | 348° |
| 2026-05-04 20:56 | 30.42797 | -81.39170 | 35110 ft | 446 kts | 348° |
| 2026-05-04 20:57 | 30.49004 | -81.39519 | 35100 ft | 446 kts | 348° |
| 2026-05-04 20:57 | 30.55208 | -81.39848 | 35119 ft | 446 kts | 348° |
| 2026-05-04 20:58 | 30.61425 | -81.40167 | 35121 ft | 446 kts | 348° |
| 2026-05-04 20:58 | 30.67628 | -81.40487 | 35149 ft | 447 kts | 348° |
| 2026-05-04 20:59 | 30.73816 | -81.40811 | 35145 ft | 446 kts | 348° |
| 2026-05-04 20:59 | 30.80034 | -81.41138 | 35136 ft | 446 kts | 348° |
| 2026-05-04 21:00 | 30.86240 | -81.41470 | 35127 ft | 446 kts | 348° |
| 2026-05-04 21:00 | 30.92449 | -81.41804 | 35122 ft | 446 kts | 348° |
| 2026-05-04 21:01 | 30.98666 | -81.42143 | 35147 ft | 447 kts | 348° |
| 2026-05-04 21:01 | 31.04877 | -81.42477 | 35124 ft | 447 kts | 348° |
| 2026-05-04 21:02 | 31.11095 | -81.42803 | 35120 ft | 447 kts | 348° |
| 2026-05-04 21:02 | 31.17266 | -81.43128 | 35116 ft | 447 kts | 348° |
| 2026-05-04 21:03 | 31.23484 | -81.43361 | 35121 ft | 453 kts | 354° |
| 2026-05-04 21:03 | 31.26644 | -81.42858 | 35117 ft | 465 kts | 5° |
| 2026-05-04 21:03 | 31.29765 | -81.41732 | 35113 ft | 472 kts | 10° |
| 2026-05-04 21:04 | 31.35977 | -81.39193 | 35093 ft | 472 kts | 10° |
| 2026-05-04 21:04 | 31.42210 | -81.36655 | 35093 ft | 473 kts | 10° |
| 2026-05-04 21:05 | 31.48435 | -81.34119 | 35104 ft | 474 kts | 10° |
| 2026-05-04 21:05 | 31.54632 | -81.31587 | 35128 ft | 474 kts | 10° |
| 2026-05-04 21:06 | 31.60860 | -81.29043 | 35117 ft | 474 kts | 10° |
| 2026-05-04 21:06 | 31.67090 | -81.26495 | 35098 ft | 474 kts | 10° |
| 2026-05-04 21:07 | 31.73326 | -81.23929 | 35089 ft | 475 kts | 10° |
| 2026-05-04 21:07 | 31.79571 | -81.21360 | 35119 ft | 475 kts | 10° |
| 2026-05-04 21:08 | 31.85810 | -81.18800 | 35107 ft | 475 kts | 10° |
| 2026-05-04 21:08 | 31.92043 | -81.16238 | 35099 ft | 474 kts | 10° |
| 2026-05-04 21:09 | 31.98275 | -81.13669 | 35095 ft | 474 kts | 11° |
| 2026-05-04 21:09 | 32.04506 | -81.11094 | 35142 ft | 474 kts | 11° |
| 2026-05-04 21:10 | 32.10686 | -81.08536 | 35091 ft | 469 kts | 12° |
| 2026-05-04 21:10 | 32.16838 | -81.05986 | 35090 ft | 469 kts | 12° |
| 2026-05-04 21:11 | 32.22953 | -81.03450 | 35092 ft | 469 kts | 11° |
| 2026-05-04 21:11 | 32.29109 | -81.00899 | 35094 ft | 469 kts | 12° |
| 2026-05-04 21:12 | 32.35268 | -80.98333 | 35126 ft | 469 kts | 12° |
| 2026-05-04 21:12 | 32.41420 | -80.95765 | 35125 ft | 468 kts | 12° |
| 2026-05-04 21:13 | 32.47554 | -80.93204 | 35121 ft | 467 kts | 12° |
| 2026-05-04 21:13 | 32.53680 | -80.90649 | 35125 ft | 467 kts | 12° |
| 2026-05-04 21:14 | 32.59816 | -80.88086 | 35142 ft | 467 kts | 12° |
| 2026-05-04 21:14 | 32.65943 | -80.85518 | 35129 ft | 468 kts | 12° |
| 2026-05-04 21:15 | 32.72038 | -80.82842 | 35110 ft | 473 kts | 18° |
| 2026-05-04 21:15 | 32.77878 | -80.79130 | 35110 ft | 477 kts | 22° |
| 2026-05-04 21:16 | 32.83695 | -80.75350 | 35143 ft | 477 kts | 22° |
| 2026-05-04 21:16 | 32.89516 | -80.71567 | 35132 ft | 476 kts | 22° |
| 2026-05-04 21:17 | 32.95333 | -80.67791 | 35127 ft | 476 kts | 22° |
| 2026-05-04 21:17 | 33.01144 | -80.64004 | 35126 ft | 476 kts | 22° |
| 2026-05-04 21:18 | 33.06959 | -80.60202 | 35102 ft | 476 kts | 22° |
| 2026-05-04 21:18 | 33.12758 | -80.56414 | 35100 ft | 475 kts | 22° |
| 2026-05-04 21:19 | 33.18546 | -80.52620 | 35094 ft | 475 kts | 22° |
| 2026-05-04 21:19 | 33.24353 | -80.48812 | 35093 ft | 475 kts | 22° |
| 2026-05-04 21:20 | 33.30119 | -80.45022 | 35095 ft | 476 kts | 22° |
| 2026-05-04 21:20 | 33.35918 | -80.41205 | 35106 ft | 475 kts | 22° |
| 2026-05-04 21:21 | 33.41703 | -80.37387 | 35098 ft | 474 kts | 22° |
| 2026-05-04 21:21 | 33.44598 | -80.35484 | 34862 ft | 474 kts | 22° |
| 2026-05-04 21:21 | 33.47499 | -80.33580 | 33680 ft | 476 kts | 22° |
| 2026-05-04 21:22 | 33.49424 | -80.32313 | 33052 ft | 473 kts | 23° |
| 2026-05-04 21:22 | 33.52235 | -80.30442 | 32728 ft | 454 kts | 23° |
| 2026-05-04 21:22 | 33.54958 | -80.28620 | 32185 ft | 441 kts | 22° |
| 2026-05-04 21:22 | 33.57611 | -80.26856 | 31716 ft | 434 kts | 22° |
| 2026-05-04 21:23 | 33.60254 | -80.25110 | 31180 ft | 433 kts | 22° |
| 2026-05-04 21:23 | 33.62895 | -80.23369 | 30682 ft | 432 kts | 22° |
| 2026-05-04 21:23 | 33.65520 | -80.21634 | 30178 ft | 431 kts | 22° |
| 2026-05-04 21:23 | 33.68143 | -80.19896 | 29624 ft | 429 kts | 22° |
| 2026-05-04 21:24 | 33.70749 | -80.18167 | 29118 ft | 425 kts | 23° |
| 2026-05-04 21:24 | 33.73332 | -80.16451 | 28598 ft | 426 kts | 23° |
| 2026-05-04 21:24 | 33.75930 | -80.14725 | 28061 ft | 428 kts | 23° |
| 2026-05-04 21:24 | 33.78536 | -80.12989 | 27520 ft | 426 kts | 23° |
| 2026-05-04 21:25 | 33.81120 | -80.11261 | 26984 ft | 424 kts | 23° |
| 2026-05-04 21:25 | 33.83695 | -80.09535 | 26454 ft | 423 kts | 23° |
| 2026-05-04 21:25 | 33.86255 | -80.07820 | 25985 ft | 419 kts | 23° |
| 2026-05-04 21:25 | 33.88797 | -80.06119 | 25444 ft | 418 kts | 23° |
| 2026-05-04 21:26 | 33.91309 | -80.04432 | 24921 ft | 409 kts | 23° |
| 2026-05-04 21:26 | 33.93774 | -80.02778 | 24356 ft | 403 kts | 23° |
| 2026-05-04 21:26 | 33.96269 | -80.01311 | 23862 ft | 393 kts | 13° |
| 2026-05-04 21:26 | 33.98889 | -80.00508 | 23330 ft | 385 kts | 1° |
| 2026-05-04 21:27 | 34.01523 | -80.00373 | 22880 ft | 373 kts | 350° |
| 2026-05-04 21:27 | 34.04043 | -80.00857 | 22731 ft | 363 kts | 340° |
| 2026-05-04 21:27 | 34.06353 | -80.01858 | 22510 ft | 357 kts | 330° |
| 2026-05-04 21:27 | 34.08591 | -80.03176 | 22300 ft | 356 kts | 329° |
| 2026-05-04 21:28 | 34.10806 | -80.04484 | 22065 ft | 355 kts | 329° |
| 2026-05-04 21:28 | 34.13019 | -80.05787 | 21856 ft | 354 kts | 329° |
| 2026-05-04 21:28 | 34.15230 | -80.07086 | 21638 ft | 353 kts | 329° |
| 2026-05-04 21:28 | 34.17428 | -80.08383 | 21421 ft | 352 kts | 330° |
| 2026-05-04 21:29 | 34.19630 | -80.09681 | 21210 ft | 351 kts | 330° |
| 2026-05-04 21:29 | 34.21816 | -80.10972 | 20982 ft | 350 kts | 330° |
| 2026-05-04 21:29 | 34.24017 | -80.12275 | 20783 ft | 349 kts | 330° |
| 2026-05-04 21:29 | 34.26196 | -80.13566 | 20560 ft | 349 kts | 330° |
| 2026-05-04 21:30 | 34.28374 | -80.14852 | 20342 ft | 348 kts | 330° |
| 2026-05-04 21:30 | 34.30541 | -80.16131 | 20134 ft | 347 kts | 330° |
| 2026-05-04 21:30 | 34.32705 | -80.17409 | 19919 ft | 345 kts | 330° |
| 2026-05-04 21:30 | 34.34871 | -80.18691 | 19718 ft | 344 kts | 330° |
| 2026-05-04 21:31 | 34.39158 | -80.21234 | 19288 ft | 342 kts | 330° |
| 2026-05-04 21:31 | 34.41294 | -80.22504 | 19081 ft | 341 kts | 330° |
| 2026-05-04 21:31 | 34.43389 | -80.23749 | 18879 ft | 341 kts | 331° |
| 2026-05-04 21:32 | 34.45547 | -80.25037 | 18685 ft | 340 kts | 331° |
| 2026-05-04 21:32 | 34.47672 | -80.26305 | 18478 ft | 339 kts | 331° |
| 2026-05-04 21:32 | 34.49789 | -80.27566 | 18261 ft | 338 kts | 331° |
| 2026-05-04 21:32 | 34.51894 | -80.28822 | 18007 ft | 338 kts | 331° |
| 2026-05-04 21:33 | 34.53999 | -80.30077 | 17795 ft | 337 kts | 331° |
| 2026-05-04 21:33 | 34.56074 | -80.31313 | 17598 ft | 336 kts | 331° |
| 2026-05-04 21:33 | 34.58173 | -80.32560 | 17384 ft | 335 kts | 331° |
| 2026-05-04 21:33 | 34.60246 | -80.33848 | 17179 ft | 333 kts | 326° |
| 2026-05-04 21:34 | 34.62114 | -80.35508 | 16992 ft | 328 kts | 319° |
| 2026-05-04 21:34 | 34.63881 | -80.37219 | 16794 ft | 326 kts | 319° |
| 2026-05-04 21:34 | 34.65654 | -80.38933 | 16595 ft | 326 kts | 319° |
| 2026-05-04 21:34 | 34.67426 | -80.40642 | 16405 ft | 325 kts | 320° |
| 2026-05-04 21:35 | 34.69196 | -80.42340 | 16205 ft | 324 kts | 320° |
| 2026-05-04 21:35 | 34.70964 | -80.44034 | 16009 ft | 323 kts | 320° |
| 2026-05-04 21:35 | 34.72724 | -80.45737 | 15516 ft | 321 kts | 319° |
| 2026-05-04 21:35 | 34.74457 | -80.47434 | 15015 ft | 321 kts | 319° |
| 2026-05-04 21:36 | 34.76191 | -80.49146 | 14514 ft | 321 kts | 319° |
| 2026-05-04 21:36 | 34.77920 | -80.50857 | 14053 ft | 321 kts | 319° |
| 2026-05-04 21:36 | 34.79648 | -80.52567 | 13571 ft | 320 kts | 319° |
| 2026-05-04 21:36 | 34.81354 | -80.54247 | 13291 ft | 306 kts | 319° |
| 2026-05-04 21:37 | 34.82972 | -80.55840 | 12901 ft | 294 kts | 319° |
| 2026-05-04 21:37 | 34.84545 | -80.57389 | 12546 ft | 289 kts | 319° |
| 2026-05-04 21:37 | 34.86089 | -80.58934 | 12287 ft | 287 kts | 318° |
| 2026-05-04 21:37 | 34.87622 | -80.60497 | 12036 ft | 286 kts | 317° |
| 2026-05-04 21:38 | 34.89141 | -80.62054 | 11786 ft | 285 kts | 317° |
| 2026-05-04 21:38 | 34.90655 | -80.63605 | 11552 ft | 284 kts | 317° |
| 2026-05-04 21:38 | 34.92164 | -80.65153 | 11303 ft | 283 kts | 317° |
| 2026-05-04 21:38 | 34.93665 | -80.66693 | 11062 ft | 282 kts | 317° |
| 2026-05-04 21:39 | 34.95166 | -80.68231 | 10817 ft | 282 kts | 317° |
| 2026-05-04 21:39 | 34.96645 | -80.69750 | 10572 ft | 281 kts | 317° |
| 2026-05-04 21:39 | 34.98139 | -80.71286 | 10335 ft | 281 kts | 317° |
| 2026-05-04 21:39 | 34.99628 | -80.72816 | 10102 ft | 280 kts | 317° |
| 2026-05-04 21:40 | 35.01121 | -80.74348 | 9934 ft | 277 kts | 317° |
| 2026-05-04 21:40 | 35.02590 | -80.75863 | 10004 ft | 280 kts | 317° |
| 2026-05-04 21:40 | 35.04074 | -80.77426 | 10004 ft | 281 kts | 316° |
| 2026-05-04 21:40 | 35.05540 | -80.78986 | 9862 ft | 279 kts | 316° |
| 2026-05-04 21:41 | 35.07004 | -80.80530 | 9516 ft | 278 kts | 320° |
| 2026-05-04 21:41 | 35.08674 | -80.81689 | 9332 ft | 276 kts | 336° |
| 2026-05-04 21:41 | 35.10520 | -80.82218 | 9202 ft | 272 kts | 352° |
| 2026-05-04 21:41 | 35.12385 | -80.82388 | 9076 ft | 264 kts | 352° |
| 2026-05-04 21:42 | 35.14185 | -80.82546 | 8955 ft | 256 kts | 352° |
| 2026-05-04 21:42 | 35.15945 | -80.82699 | 8791 ft | 250 kts | 352° |
| 2026-05-04 21:42 | 35.17655 | -80.82844 | 8669 ft | 243 kts | 352° |
| 2026-05-04 21:42 | 35.19334 | -80.82986 | 8536 ft | 240 kts | 352° |
| 2026-05-04 21:43 | 35.20993 | -80.83124 | 8409 ft | 240 kts | 352° |
| 2026-05-04 21:43 | 35.22670 | -80.83265 | 8279 ft | 240 kts | 352° |
| 2026-05-04 21:43 | 35.24327 | -80.83399 | 8100 ft | 239 kts | 352° |
| 2026-05-04 21:43 | 35.25989 | -80.83526 | 7808 ft | 239 kts | 352° |
| 2026-05-04 21:44 | 35.27651 | -80.83663 | 7557 ft | 238 kts | 352° |
| 2026-05-04 21:44 | 35.29275 | -80.83809 | 7284 ft | 237 kts | 352° |
| 2026-05-04 21:44 | 35.30919 | -80.83968 | 7034 ft | 236 kts | 352° |
| 2026-05-04 21:44 | 35.32550 | -80.84135 | 6799 ft | 235 kts | 351° |
| 2026-05-04 21:45 | 35.34182 | -80.84309 | 6538 ft | 234 kts | 351° |
| 2026-05-04 21:45 | 35.35804 | -80.84482 | 6250 ft | 234 kts | 351° |
| 2026-05-04 21:45 | 35.37413 | -80.84658 | 6030 ft | 231 kts | 351° |
| 2026-05-04 21:45 | 35.38972 | -80.84828 | 6000 ft | 234 kts | 351° |
| 2026-05-04 21:46 | 35.40596 | -80.85009 | 6002 ft | 235 kts | 352° |
| 2026-05-04 21:46 | 35.42223 | -80.85187 | 6002 ft | 235 kts | 351° |
| 2026-05-04 21:46 | 35.43845 | -80.85362 | 5784 ft | 234 kts | 351° |
| 2026-05-04 21:46 | 35.45468 | -80.85539 | 5459 ft | 235 kts | 352° |
| 2026-05-04 21:47 | 35.47109 | -80.85715 | 5105 ft | 237 kts | 352° |
| 2026-05-04 21:47 | 35.48767 | -80.85886 | 4774 ft | 240 kts | 354° |
| 2026-05-04 21:47 | 35.50388 | -80.86245 | 4509 ft | 236 kts | 332° |
| 2026-05-04 21:47 | 35.51620 | -80.87469 | 4221 ft | 226 kts | 298° |
| 2026-05-04 21:48 | 35.52059 | -80.89237 | 4022 ft | 214 kts | 263° |
| 2026-05-04 21:48 | 35.51827 | -80.91034 | 3977 ft | 215 kts | 253° |
| 2026-05-04 21:48 | 35.51459 | -80.92818 | 3973 ft | 215 kts | 252° |
| 2026-05-04 21:48 | 35.51061 | -80.94595 | 3989 ft | 214 kts | 248° |
| 2026-05-04 21:49 | 35.50250 | -80.96075 | 3989 ft | 212 kts | 216° |
| 2026-05-04 21:49 | 35.48903 | -80.96754 | 3989 ft | 211 kts | 187° |
| 2026-05-04 21:49 | 35.47442 | -80.96601 | 3979 ft | 214 kts | 161° |
| 2026-05-04 21:49 | 35.46102 | -80.95791 | 3978 ft | 216 kts | 153° |
| 2026-05-04 21:50 | 35.44788 | -80.94962 | 3983 ft | 215 kts | 166° |
| 2026-05-04 21:50 | 35.43291 | -80.94810 | 3996 ft | 214 kts | 184° |
| 2026-05-04 21:50 | 35.41806 | -80.94900 | 3986 ft | 214 kts | 184° |
| 2026-05-04 21:50 | 35.40320 | -80.95016 | 3979 ft | 213 kts | 184° |
| 2026-05-04 21:51 | 35.38832 | -80.95004 | 3867 ft | 215 kts | 180° |
| 2026-05-04 21:51 | 35.37343 | -80.94897 | 3621 ft | 212 kts | 178° |
| 2026-05-04 21:51 | 35.35880 | -80.94770 | 3372 ft | 211 kts | 179° |
| 2026-05-04 21:51 | 35.34450 | -80.94646 | 3090 ft | 203 kts | 178° |
| 2026-05-04 21:52 | 35.33093 | -80.94528 | 2844 ft | 185 kts | 178° |
| 2026-05-04 21:52 | 35.31868 | -80.94422 | 2600 ft | 168 kts | 178° |
| 2026-05-04 21:52 | 35.30740 | -80.94325 | 2381 ft | 156 kts | 179° |
| 2026-05-04 21:52 | 35.29689 | -80.94235 | 2190 ft | 145 kts | 177° |
| 2026-05-04 21:53 | 35.28690 | -80.94150 | 2000 ft | 145 kts | 177° |
| 2026-05-04 21:53 | 35.27695 | -80.94065 | 1838 ft | 142 kts | 177° |
| 2026-05-04 21:53 | 35.26706 | -80.93980 | 1668 ft | 143 kts | 179° |
| 2026-05-04 21:53 | 35.25724 | -80.93895 | 1420 ft | 140 kts | 182° |
| 2026-05-04 21:54 | 35.24749 | -80.93811 | 1237 ft | 143 kts | 178° |
| 2026-05-04 21:54 | 35.23776 | -80.93729 | 1063 ft | 141 kts | 181° |
| 2026-05-04 21:54 | 35.22807 | -80.93641 | 852 ft | 138 kts | 180° |
| 2026-05-04 21:54 | 35.21896 | -80.93570 | 739 ft | 123 kts | 178° |
| 2026-05-04 21:55 | 35.21300 | -80.93529 | 734 ft | 43 kts | 172° |
| 2026-05-04 21:55 | 35.21210 | -80.93514 | 734 ft | 10 kts | 174° |
| 2026-05-04 21:55 | 35.21056 | -80.93509 | 734 ft | 26 kts | 183° |
| 2026-05-04 21:55 | 35.20968 | -80.93537 | 734 ft | 3 kts | 195° |
| 2026-05-04 21:56 | 35.20948 | -80.93602 | 733 ft | 12 kts | 308° |
| 2026-05-04 21:56 | 35.21023 | -80.93630 | 733 ft | 12 kts | 352° |
| 2026-05-04 21:56 | 35.21112 | -80.93632 | 733 ft | 14 kts | 359° |
| 2026-05-04 21:56 | 35.21213 | -80.93634 | 733 ft | 15 kts | 359° |
| 2026-05-04 21:57 | 35.21322 | -80.93652 | 733 ft | 16 kts | 358° |
| 2026-05-04 21:57 | 35.21437 | -80.93660 | 733 ft | 18 kts | 356° |
| 2026-05-04 21:57 | 35.21556 | -80.93687 | 733 ft | 12 kts | 314° |
| 2026-05-04 21:57 | 35.21623 | -80.93761 | 733 ft | 14 kts | 314° |
| 2026-05-04 21:58 | 35.21691 | -80.93852 | 733 ft | 15 kts | 310° |
| 2026-05-04 21:58 | 35.21770 | -80.93956 | 731 ft | 13 kts | 298° |
| 2026-05-04 21:58 | 35.21740 | -80.94039 | 731 ft | 12 kts | 225° |
| 2026-05-04 21:58 | 35.21676 | -80.94119 | 732 ft | 14 kts | 228° |
| 2026-05-04 21:59 | 35.21626 | -80.94223 | 732 ft | 15 kts | 263° |
| 2026-05-04 21:59 | 35.21631 | -80.94356 | 732 ft | 15 kts | 248° |
| 2026-05-04 21:59 | 35.21576 | -80.94472 | 732 ft | 17 kts | 255° |
| 2026-05-04 21:59 | 35.21566 | -80.94622 | 732 ft | 19 kts | 266° |
| 2026-05-04 22:00 | 35.21555 | -80.94789 | 732 ft | 21 kts | 264° |
| 2026-05-04 22:00 | 35.21581 | -80.94933 | 733 ft | 10 kts | 339° |
| 2026-05-04 22:00 | 35.21633 | -80.94928 | 733 ft | 8 kts | 356° |
| 2026-05-04 22:00 | 35.21694 | -80.94938 | 733 ft | 10 kts | 352° |
| 2026-05-04 22:01 | 35.21769 | -80.94948 | 733 ft | 12 kts | 354° |
| 2026-05-04 22:01 | 35.21853 | -80.94957 | 733 ft | 13 kts | 355° |
| 2026-05-04 22:01 | 35.21951 | -80.94966 | 733 ft | 15 kts | 355° |
| 2026-05-04 22:01 | 35.22061 | -80.94974 | 733 ft | 17 kts | 357° |
| 2026-05-04 22:02 | 35.22183 | -80.94979 | 733 ft | 18 kts | 354° |
| 2026-05-04 22:02 | 35.22290 | -80.94971 | 733 ft | 8 kts | 72° |
| 2026-05-04 22:02 | 35.22280 | -80.94924 | 733 ft | 6 kts | 103° |
| 2026-05-04 22:02 | 35.22267 | -80.94872 | 733 ft | 7 kts | 108° |
| 2026-05-04 22:03 | 35.22260 | -80.94847 | 732 ft | 0 kts | 108° |